createdAt,value
2022-08-21T06:26:48.713Z,5.80
2022-08-21T06:35:57.115Z,4.80
2022-08-21T06:39:01.752Z,4.10
2022-08-21T06:45:07.678Z,5.35
2022-08-21T06:47:51.612Z,4.93
2022-08-21T06:50:36.019Z,4.22
2022-08-21T06:55:51.847Z,3.92
2022-08-21T06:58:41.494Z,4.70
2022-08-21T07:01:18.974Z,4.57
2022-08-21T07:04:06.404Z,3.90
2022-08-21T07:09:40.628Z,4.13
2022-08-21T07:12:27.510Z,4.20
2022-08-21T07:15:11.175Z,3.85
2022-08-21T07:20:36.350Z,3.65
2022-08-21T07:23:12.082Z,3.30
2022-08-21T07:25:46.271Z,4.20
2022-08-21T07:28:30.424Z,4.07
2022-08-21T07:33:50.527Z,4.65
2022-08-21T07:36:30.930Z,3.83
2022-08-21T07:39:27.169Z,3.83
2022-08-21T07:42:08.193Z,4.45
2022-08-21T07:44:44.498Z,4.00
2022-08-21T07:47:41.871Z,4.10
2022-08-21T07:50:44.394Z,3.80
2022-08-21T07:53:30.926Z,4.03
2022-08-21T07:59:20.008Z,3.60
2022-08-21T08:02:05.875Z,2.95
2022-08-21T08:04:51.169Z,3.30
2022-08-21T08:07:31.108Z,2.50
2022-08-21T08:10:18.534Z,2.10
2022-08-21T08:12:59.610Z,2.17
2022-08-21T08:15:41.885Z,2.20
2022-08-21T08:18:33.850Z,2.20
2022-08-21T08:21:10.213Z,1.88
2022-08-21T08:23:51.344Z,2.10
2022-08-21T08:26:30.794Z,2.00
2022-08-21T08:29:13.442Z,1.90
2022-08-21T08:31:56.093Z,1.98
2022-08-21T08:37:34.259Z,2.05
2022-08-21T08:40:11.665Z,1.20
2022-08-21T08:42:58.270Z,1.88
2022-08-21T08:45:53.867Z,1.60
2022-08-21T08:48:34.541Z,2.03
2022-08-21T08:51:21.168Z,1.80
2022-08-21T08:57:21.910Z,1.55
2022-08-21T09:00:12.574Z,1.65
2022-08-21T09:03:10.435Z,1.60
2022-08-21T09:06:40.787Z,1.40
2022-08-21T09:09:47.280Z,1.75
2022-08-21T09:15:06.288Z,1.63
2022-08-21T09:17:54.707Z,1.52
2022-08-21T09:21:17.563Z,1.60
2022-08-21T09:23:52.494Z,1.60
2022-08-21T09:26:52.338Z,1.57
2022-08-21T09:32:37.068Z,1.40
2022-08-21T09:35:16.019Z,1.50
2022-08-21T09:38:26.764Z,1.60
2022-08-21T09:41:14.460Z,1.52
2022-08-21T09:43:52.116Z,1.40
2022-08-21T09:46:33.603Z,1.23
2022-08-21T09:52:08.123Z,1.50
2022-08-21T09:54:54.449Z,1.40
2022-08-21T09:57:29.506Z,1.45
2022-08-21T10:00:28.990Z,1.50
2022-08-21T10:03:26.619Z,1.40
2022-08-21T10:08:47.368Z,1.30
2022-08-21T10:11:31.503Z,1.40
2022-08-21T10:14:06.907Z,1.13
2022-08-21T10:17:14.019Z,1.30
2022-08-21T10:25:07.380Z,1.27
2022-08-21T10:28:25.732Z,1.15
2022-08-21T10:31:19.374Z,0.90
2022-08-21T10:33:59.655Z,1.23
2022-08-21T10:37:10.847Z,1.10
2022-08-21T10:40:30.160Z,1.10
2022-08-21T10:43:10.499Z,0.85
2022-08-21T10:49:34.953Z,1.35
2022-08-21T10:52:22.447Z,1.20
2022-08-21T10:55:01.899Z,1.42
2022-08-21T10:58:05.623Z,1.08
2022-08-21T11:00:47.197Z,1.67
2022-08-21T11:04:10.264Z,1.15
2022-08-21T11:09:32.409Z,1.15
2022-08-21T11:12:15.922Z,1.40
2022-08-21T11:15:44.538Z,1.13
2022-08-21T11:18:23.942Z,1.10
2022-08-21T11:21:09.973Z,1.40
2022-08-21T11:23:45.501Z,1.10
2022-08-21T11:26:40.781Z,1.00
2022-08-21T11:29:15.759Z,1.13
2022-08-21T11:32:16.365Z,1.00
2022-08-21T11:37:36.307Z,1.25
2022-08-21T11:40:24.822Z,0.90
2022-08-21T11:43:20.200Z,1.20
2022-08-21T11:45:51.533Z,0.98
2022-08-21T11:48:50.368Z,1.20
2022-08-21T11:51:45.796Z,1.45
2022-08-21T11:54:35.403Z,1.40
2022-08-21T11:59:57.311Z,1.15
2022-08-21T12:02:50.452Z,1.48
2022-08-21T12:05:42.287Z,1.30
2022-08-21T12:08:34.214Z,1.30
2022-08-21T12:11:06.231Z,1.60
2022-08-21T12:14:33.659Z,0.82
2022-08-21T12:17:08.860Z,1.35
2022-08-21T12:19:39.778Z,1.10
2022-08-21T12:22:17.077Z,1.20
2022-08-21T12:25:07.916Z,1.42
2022-08-21T12:28:11.898Z,1.20
2022-08-21T12:30:47.395Z,1.13
2022-08-21T12:33:41.966Z,1.23
2022-08-21T12:36:21.107Z,1.05
2022-08-21T12:39:19.922Z,0.90
2022-08-21T12:42:24.027Z,1.30
2022-08-21T12:45:04.323Z,0.82
2022-08-21T12:47:46.377Z,1.17
2022-08-21T12:50:19.783Z,1.10
2022-08-21T12:53:18.643Z,1.35
2022-08-21T12:55:48.153Z,1.38
2022-08-21T12:58:43.422Z,0.80
2022-08-21T13:01:20.854Z,1.35
2022-08-21T13:03:58.869Z,1.05
2022-08-21T13:06:41.652Z,1.40
2022-08-21T13:09:13.921Z,0.80
2022-08-21T13:11:45.119Z,1.00
2022-08-21T13:14:30.027Z,1.30
2022-08-21T13:16:59.789Z,1.15
2022-08-21T13:19:31.790Z,1.23
2022-08-21T13:21:59.595Z,1.40
2022-08-21T13:24:43.367Z,1.40
2022-08-21T13:27:24.418Z,1.33
2022-08-21T13:30:07.708Z,1.15
2022-08-21T13:32:43.716Z,0.73
2022-08-21T13:35:29.523Z,1.30
2022-08-21T13:38:01.861Z,1.00
2022-08-21T13:41:06.279Z,1.05
2022-08-21T13:43:39.565Z,1.13
2022-08-21T13:46:22.888Z,1.13
2022-08-21T13:48:50.282Z,1.42
2022-08-21T13:51:25.834Z,1.00
2022-08-21T13:53:54.319Z,1.30
2022-08-21T13:56:28.799Z,1.40
2022-08-21T13:58:57.811Z,1.30
2022-08-21T14:01:37.323Z,1.20
2022-08-21T14:04:16.122Z,1.30
2022-08-21T14:06:47.046Z,1.00
2022-08-21T14:09:41.683Z,0.88
2022-08-21T14:12:28.990Z,1.05
2022-08-21T14:14:57.930Z,1.05
2022-08-21T14:17:43.301Z,1.17
2022-08-21T14:20:29.195Z,1.02
2022-08-21T14:22:58.381Z,1.00
2022-08-21T14:25:26.376Z,0.90
2022-08-21T14:28:09.579Z,0.88
2022-08-21T14:30:38.780Z,1.15
2022-08-21T14:33:29.771Z,1.05
2022-08-21T14:36:00.440Z,0.82
2022-08-21T14:38:38.756Z,1.10
2022-08-21T14:41:24.900Z,0.75
2022-08-21T14:43:59.762Z,1.02
2022-08-21T14:46:51.633Z,0.95
2022-08-21T14:49:22.883Z,1.02
2022-08-21T14:51:55.620Z,0.65
2022-08-21T14:54:31.370Z,0.82
2022-08-21T14:57:22.441Z,1.13
2022-08-21T14:59:51.855Z,0.98
2022-08-21T15:02:32.147Z,1.10
2022-08-21T15:04:59.680Z,1.30
2022-08-21T15:07:29.340Z,0.90
2022-08-21T15:10:00.745Z,1.40
2022-08-21T15:12:28.035Z,1.00
2022-08-21T15:15:00.628Z,1.30
2022-08-21T15:17:30.576Z,1.08
2022-08-21T15:22:48.702Z,0.90
2022-08-21T15:30:38.442Z,1.20
2022-08-21T15:33:06.191Z,0.95
2022-08-21T15:35:45.751Z,1.20
2022-08-21T15:38:17.490Z,0.98
2022-08-21T15:40:51.561Z,0.88
2022-08-21T15:43:31.630Z,1.00
2022-08-21T15:46:16.304Z,1.30
2022-08-21T15:48:45.352Z,1.48
2022-08-21T15:51:22.431Z,0.90
2022-08-21T15:53:50.893Z,1.25
2022-08-21T15:56:29.833Z,1.30
2022-08-21T15:59:14.268Z,1.17
2022-08-21T16:01:44.933Z,1.30
2022-08-21T16:04:34.380Z,1.10
2022-08-21T16:07:06.555Z,1.23
2022-08-21T16:09:41.055Z,1.20
2022-08-21T16:12:11.611Z,1.30
2022-08-21T16:14:44.339Z,1.38
2022-08-21T16:17:11.811Z,1.10
2022-08-21T16:19:46.509Z,1.33
2022-08-21T16:22:16.079Z,1.40
2022-08-21T16:24:44.336Z,1.05
2022-08-21T16:27:19.663Z,1.10
2022-08-21T16:29:47.783Z,1.27
2022-08-21T16:32:15.450Z,1.40
2022-08-21T16:34:52.629Z,1.00
2022-08-21T16:37:24.569Z,1.23
2022-08-21T16:42:52.947Z,1.30
2022-08-21T16:45:31.092Z,1.20
2022-08-21T16:48:03.400Z,1.20
2022-08-21T16:50:30.974Z,1.10
2022-08-21T16:52:58.564Z,1.13
2022-08-21T16:55:39.566Z,1.17
2022-08-21T16:58:38.337Z,1.60
2022-08-21T17:01:15.482Z,0.90
2022-08-21T17:03:56.534Z,1.40
2022-08-21T17:06:31.280Z,1.33
2022-08-21T17:09:05.278Z,1.67
2022-08-21T17:11:48.623Z,1.35
2022-08-21T17:14:27.413Z,1.70
2022-08-21T17:16:59.067Z,1.30
2022-08-21T17:19:26.217Z,1.05
2022-08-21T17:21:53.527Z,1.55
2022-08-21T17:24:21.205Z,1.48
2022-08-21T17:27:01.659Z,1.57
